Flight Track Log - Related Links

Times and Time Zones

All times are in EST time to prevent confusion due to time zone crossing. See the N45NS flight status page for this flight to view local times or setup timezone preferences in your user account.

Time Position Orientation Groundspeed Altitude Reporting Facility
EST Latitude Longitude Course Direction KTS MPH feet Rate Location/Type
Sun 03:52:27 PM 39.6014 -107.0092 235° Southwest 191 220 11,700  Level Denver Center
Sun 03:53:28 PM 39.6542 -107.0392 336° Northwest 226 260 14,400 1,951 Climbing Denver Center
Sun 03:54:30 PM 39.7325 -107.0769 340° North 290 334 15,700 2,032 Climbing Denver Center
Sun 03:55:32 PM 39.7972 -107.0072 40° Northeast 318 366 18,600 2,855 Climbing Denver Center
Sun 03:56:00 PM 40.0371 -106.1869 81° East  Level FlightAware Approximate
Sun 03:56:34 PM 39.8367 -106.8947 65° Northeast 334 384 21,600  Level Denver Center
Sun 03:57:36 PM 39.8794 -106.7814 64° Northeast 341 392 24,500 2,758 Climbing Denver Center
Sun 03:58:38 PM 39.9247 -106.6572 65° Northeast 347 399 27,300 2,160 Climbing Denver Center
Sun 03:59:41 PM 39.9694 -106.5342 65° Northeast 357 411 29,000 2,160 Climbing Denver Center
Sun 04:00:43 PM 40.0108 -106.4106 66° East 374 430 31,800 2,293 Climbing Denver Center
Sun 04:01:44 PM 40.0267 -106.2783 81° East 371 427 33,700 1,561 Climbing Denver Center
Sun 04:02:46 PM 40.0461 -106.1464 79° East 370 426 35,000 1,258 Climbing Denver Center
Sun 04:03:48 PM 40.0644 -106.0122 80° East 372 428 36,300 1,258 Climbing Denver Center
Sun 04:04:50 PM 40.0847 -105.8733 79° East 387 445 37,600 1,065 Climbing Denver Center
Sun 04:05:52 PM 40.1072 -105.7064 80° East 391 450 38,500 774 Climbing Denver Center
Sun 04:06:54 PM 40.1256 -105.5656 80° East 392 451 39,200 968 Climbing Denver Center
Sun 04:07:56 PM 40.1444 -105.4228 80° East 398 458 40,500 871 Climbing Denver Center
Sun 04:08:58 PM 40.1639 -105.2819 80° East 395 455 41,000 242 Climbing Denver Center
Sun 04:10:00 PM 40.1833 -105.1356 80° East 404 465 41,000  Level Denver Center
Sun 04:11:02 PM 40.2022 -104.9853 81° East 413 475 41,000  Level Denver Center
Sun 04:12:03 PM 40.2236 -104.8267 80° East 433 498 41,000  Level Denver Center
Sun 04:13:05 PM 40.2481 -104.6333 81° East 443 510 41,000  Level Denver Center
Sun 04:14:07 PM 40.2692 -104.4675 80° East 453 521 41,000  Level Denver Center
Sun 04:15:09 PM 40.2900 -104.3008 81° East 459 528 41,000  Level Denver Center
Sun 04:16:11 PM 40.3108 -104.1350 81° East 459 528 41,000  Level Denver Center
Sun 04:17:13 PM 40.3303 -103.9689 81° East 460 529 41,000  Level Denver Center
Sun 04:18:15 PM 40.3508 -103.8042 81° East 460 529 41,000  Level Denver Center
Sun 04:19:17 PM 40.3703 -103.6389 81° East 460 529 41,000  Level Denver Center
Sun 04:20:19 PM 40.3936 -103.4406 81° East 460 529 41,000  Level Denver Center
Sun 04:21:21 PM 40.4125 -103.2758 81° East 459 528 41,000  Level Denver Center
Sun 04:22:23 PM 40.4325 -103.1103 81° East 459 528 41,000  Level Denver Center
Sun 04:23:25 PM 40.4494 -102.9456 82° East 459 528 41,000  Level Denver Center
Sun 04:24:27 PM 40.4692 -102.7811 81° East 459 528 41,000  Level Denver Center
Sun 04:25:29 PM 40.4881 -102.6036 82° East 459 528 41,000  Level Denver Center
Sun 04:26:31 PM 40.5092 -102.4175 81° East 459 528 41,000  Level Denver Center
Sun 04:27:33 PM 40.5258 -102.2578 82° East 460 529 41,000  Level Denver Center
Sun 04:28:35 PM 40.5456 -102.0706 82° East 461 531 41,000  Level Denver Center
Sun 04:29:37 PM 40.5614 -101.9103 83° East 462 532 41,000  Level Denver Center
Sun 04:30:39 PM 40.5814 -101.7231 82° East 462 532 41,000  Level Denver Center
Sun 04:31:42 PM 40.5975 -101.5619 82° East 462 532 41,000  Level Denver Center
Sun 04:32:44 PM 40.6161 -101.3744 82° East 463 533 41,000  Level Denver Center
Sun 04:33:46 PM 40.6322 -101.2128 82° East 464 534 41,000  Level Denver Center
Sun 04:34:48 PM 40.6500 -101.0261 83° East 464 534 41,000  Level Denver Center
Sun 04:35:50 PM 40.6656 -100.8650 83° East 464 534 41,000  Level Denver Center
Sun 04:36:52 PM 40.6831 -100.6786 83° East 466 536 41,000  Level Denver Center
Sun 04:37:54 PM 40.6983 -100.5186 83° East 466 536 41,000  Level Denver Center
Sun 04:38:56 PM 40.7153 -100.3297 83° East 466 536 41,000  Level Denver Center
Sun 04:39:58 PM 40.7303 -100.1678 83° East 467 537 41,000  Level Denver Center
Sun 04:41:00 PM 40.7461 -99.9761 84° East 467 537 41,000  Level Denver Center
Sun 04:42:02 PM 40.7586 -99.8269 84° East 467 537 41,000  Level Denver Center
Sun 04:43:04 PM 40.7756 -99.6211 84° East 468 539 41,000  Level Denver Center
Sun 04:44:06 PM 40.7892 -99.4478 84° East 471 542 41,000  Level Denver Center
Sun 04:45:09 PM 40.8047 -99.2764 83° East 472 543 41,000  Level Denver Center
Sun 04:46:08 PM 40.8172 -99.1111 84° East 473 544 41,000  Level Minneapolis Center
Sun 04:47:10 PM 40.8303 -98.9378 84° East 474 545 41,000  Level Minneapolis Center
Sun 04:48:12 PM 40.8431 -98.7636 84° East 474 545 41,000  Level Minneapolis Center
Sun 04:49:13 PM 40.8592 -98.5547 84° East 475 547 41,000  Level Minneapolis Center
Sun 04:50:15 PM 40.8714 -98.3792 85° East 475 547 41,000  Level Minneapolis Center
Sun 04:51:17 PM 40.8839 -98.2056 85° East 475 547 41,000  Level Minneapolis Center
Sun 04:52:19 PM 40.8961 -98.0314 85° East 475 547 41,000  Level Minneapolis Center
Sun 04:53:20 PM 40.9081 -97.8564 85° East 475 547 41,000  Level Minneapolis Center
Sun 04:54:22 PM 40.9197 -97.6792 85° East 479 551 41,000  Level Minneapolis Center
Sun 04:55:24 PM 40.9306 -97.5031 85° East 479 551 41,000  Level Minneapolis Center
Sun 04:56:25 PM 40.9453 -97.2922 85° East 480 552 41,000  Level Minneapolis Center
Sun 04:57:27 PM 40.9553 -97.1156 86° East 480 552 41,000  Level Minneapolis Center
Sun 04:58:29 PM 40.9656 -96.9367 86° East 483 556 41,000  Level Minneapolis Center
Sun 04:59:31 PM 40.9775 -96.7600 85° East 484 557 41,000  Level Minneapolis Center
Sun 05:00:32 PM 40.9875 -96.5828 86° East 484 557 41,000  Level Minneapolis Center
Sun 05:01:34 PM 40.9967 -96.4058 86° East 484 557 41,000  Level Minneapolis Center
Sun 05:02:36 PM 41.0072 -96.2289 85° East 485 558 41,000  Level Minneapolis Center
Sun 05:03:38 PM 41.0169 -96.0164 86° East 485 558 41,000  Level Minneapolis Center
Sun 05:04:39 PM 41.0258 -95.8383 86° East 486 559 41,000  Level Minneapolis Center
Sun 05:05:41 PM 41.0347 -95.6597 86° East 488 562 41,000  Level Minneapolis Center
Sun 05:06:43 PM 41.0431 -95.4808 86° East 489 563 41,000  Level Minneapolis Center
Sun 05:07:44 PM 41.0517 -95.2986 86° East 493 567 41,000  Level Minneapolis Center
Sun 05:08:46 PM 41.0600 -95.1156 86° East 495 570 41,000  Level Minneapolis Center
Sun 05:09:48 PM 41.0692 -94.8964 87° East 496 571 41,000  Level Minneapolis Center
Sun 05:10:49 PM 41.0761 -94.7128 87° East 497 572 41,000  Level Minneapolis Center
Sun 05:11:51 PM 41.0819 -94.5144 88° East 499 574 41,000  Level Minneapolis Center
Sun 05:12:53 PM 41.0911 -94.3289 86° East 501 577 41,000  Level Minneapolis Center
Sun 05:13:54 PM 41.0969 -94.1431 88° East 502 578 41,000  Level Minneapolis Center
Sun 05:14:56 PM 41.1028 -93.9597 88° East 502 578 41,000  Level Minneapolis Center
Sun 05:15:58 PM 41.1094 -93.7736 87° East 502 578 41,000  Level Minneapolis Center
Sun 05:16:59 PM 41.1139 -93.5875 88° East 504 580 41,000  Level Minneapolis Center
Sun 05:18:01 PM 41.1194 -93.4017 88° East 504 580 41,000  Level Minneapolis Center
Sun 05:19:03 PM 41.1256 -93.1911 88° East 504 580 41,000  Level Minneapolis Center
Sun 05:20:04 PM 41.1322 -92.9903 87° East 506 582 41,000  Level Minneapolis Center
Sun 05:21:06 PM 41.1367 -92.8031 88° East 506 582 41,000  Level Minneapolis Center
Sun 05:22:08 PM 41.1408 -92.6144 88° East 506 582 41,000  Level Minneapolis Center
Sun 05:23:09 PM 41.1447 -92.4281 88° East 506 582 41,000  Level Minneapolis Center
Sun 05:24:11 PM 41.1489 -92.2381 88° East 508 585 41,000  Level Minneapolis Center
Sun 05:25:13 PM 41.1522 -92.0494 89° East 509 586 41,000  Level Minneapolis Center
Sun 05:26:14 PM 41.1553 -91.8617 89° East 509 586 41,000  Level Minneapolis Center
Sun 05:27:39 PM 41.1586 -91.5944 89° East 518 596 41,000  Level Chicago Center
Sun 05:28:41 PM 41.1617 -91.3675 89° East 514 592 41,000  Level Chicago Center
Sun 05:29:43 PM 41.1636 -91.1764 89° East 517 595 41,000  Level Chicago Center
Sun 05:30:44 PM 41.1658 -90.9847 89° East 518 596 41,000  Level Chicago Center
Sun 05:31:46 PM 41.1669 -90.7936 89° East 517 595 41,000  Level Chicago Center
Sun 05:32:48 PM 41.1675 -90.6025 90° East 517 595 41,000  Level Chicago Center
Sun 05:33:49 PM 41.1681 -90.4131 90° East 514 592 41,000  Level Chicago Center
Sun 05:34:51 PM 41.1683 -90.2231 90° East 513 590 41,000  Level Chicago Center
Sun 05:35:53 PM 41.1686 -90.0308 90° East 516 594 41,000  Level Chicago Center
Sun 05:36:55 PM 41.1678 -89.8389 90° East 517 595 41,000  Level Chicago Center
Sun 05:37:56 PM 41.1669 -89.6067 90° East 519 597 41,000  Level Chicago Center
Sun 05:38:58 PM 41.1664 -89.4136 90° East 520 598 41,000  Level Chicago Center
Sun 05:40:00 PM 41.1656 -89.2222 90° East 518 596 41,000  Level Chicago Center
Sun 05:41:02 PM 41.1631 -89.0139 91° East 524 603 41,000  Level Chicago Center
Sun 05:42:03 PM 41.1614 -88.8217 91° East 525 604 41,000  Level Chicago Center
Sun 05:43:05 PM 41.1586 -88.6286 91° East 527 606 41,000  Level Chicago Center
Sun 05:44:07 PM 41.1564 -88.4361 91° East 527 606 41,000  Level Chicago Center
Sun 05:46:11 PM 41.1503 -88.0128 91° East 530 610 41,000  Level Chicago Center
Sun 05:47:12 PM 41.1458 -87.8197 92° East 532 612 41,000  Level Chicago Center
Sun 05:48:14 PM 41.1425 -87.6225 91° East 538 619 41,000  Level Chicago Center
Sun 05:49:16 PM 41.1392 -87.4244 91° East 540 621 41,000  Level Chicago Center
Sun 05:50:18 PM 41.1331 -87.2272 92° East 539 620 41,000  Level Chicago Center
Sun 05:51:20 PM 41.1261 -86.9914 92° East 535 616 41,000  Level Chicago Center
Sun 05:52:22 PM 41.1208 -86.7942 92° East 538 619 41,000  Level Chicago Center
Sun 05:53:23 PM 41.1169 -86.6253 92° East 538 619 41,000  Level Chicago Center
Sun 05:54:25 PM 41.1089 -86.3850 92° East 547 629 41,000  Level Chicago Center
Sun 05:55:27 PM 41.1025 -86.1850 92° East 546 628 41,000  Level Chicago Center
Sun 05:56:29 PM 41.0953 -85.9853 93° East 547 629 41,000  Level Chicago Center
Sun 05:57:31 PM 41.0875 -85.7850 93° East 549 632 41,000  Level Chicago Center
Sun 05:58:32 PM 41.0800 -85.5847 93° East 550 633 41,000  Level Chicago Center
Sun 05:59:34 PM 41.0703 -85.3447 93° East 549 632 41,000  Level Chicago Center
Sun 06:00:36 PM 41.0603 -85.1400 94° East 560 644 41,000 -48 Level Chicago Center
Sun 06:01:38 PM 41.0522 -84.9403 93° East 553 636 40,900 -677 Descending Chicago Center
Sun 06:02:40 PM 41.0439 -84.7422 93° East 547 629 39,600 -1,355 Descending Chicago Center
Sun 06:03:42 PM 41.0333 -84.5400 94° East 552 635 38,100 -1,403 Descending Chicago Center
Sun 06:04:44 PM 41.0242 -84.3375 93° East 554 638 36,700 -1,500 Descending Chicago Center
Sun 06:05:46 PM 41.0119 -84.0933 94° East 557 641 35,000 -1,548 Descending Chicago Center
Sun 06:06:48 PM 41.0408 -83.8894 79° East 566 651 33,500 -1,854 Descending Chicago Center
Sun 06:07:49 PM 41.0703 -83.6872 79° East 562 647 31,200 -2,146 Descending Chicago Center
Sun 06:08:51 PM 41.0661 -83.4967 92° East 521 600 29,100 -2,596 Descending Chicago Center
Sun 06:10:10 PM 41.0372 -83.2492 99° East 505 581 25,100 -2,340 Descending Cleveland Center
Sun 06:11:12 PM 41.0036 -83.0797 105° East 454 522 23,600 -1,016 Descending Cleveland Center
Sun 06:12:14 PM 40.9553 -82.9317 113° Southeast 437 503 23,000 -677 Descending Cleveland Center
Sun 06:13:16 PM 40.9094 -82.7889 113° Southeast 424 488 22,200 -2,129 Descending Cleveland Center
Sun 06:14:18 PM 40.8603 -82.6464 114° Southeast 421 484 18,600 -3,823 Descending Cleveland Center
Sun 06:15:20 PM 40.7983 -82.4844 117° Southeast 421 484 14,300 -4,032 Descending Cleveland Center
Sun 06:16:23 PM 40.7958 -82.3483 91° East 384 442 10,200 -3,792 Descending Cleveland Center
Sun 06:17:25 PM 40.8239 -82.2317 72° East 336 387 6,400 -3,242 Descending Cleveland Center
Sun 06:18:27 PM 40.8456 -82.1411 72° East 277 319 3,500 -1,645 Descending Cleveland Center
Sun 06:19:29 PM 40.8644 -82.0553 74° East 260 299 3,000 -484 Descending Cleveland Center
Sun 06:21:00 PM 40.8667 -81.8833 82° East  Level FlightAware Approximate
Sun 06:28:00 PM 40.8748 -81.8883 82° East  Level Estimated
Sun 06:29:00 PM 40.8748 -81.8883 82° East  Level Estimated
Sun 06:30:00 PM 40.8748 -81.8883 82° East  Level Estimated
Sun 06:31:00 PM 40.8748 -81.8883 82° East  Level Estimated

Login

Don't have an account? Register now (free) for customized features, flight alerts, and more!